Time;durP1;ratioP1;P1;durP2;ratioP2;P2;SDS_P1;SDS_P2;PMS_P1;PMS_P2;Temp;Humidity;BMP_temperature;BMP_pressure;BME280_temperature;BME280_humidity;BME280_pressure;Samples;Min_cycle;Max_cycle;Signal;HPM_P1;HPM_P2
2024/01/29 08:26:16;;;;;;;;;;;;;;;;;;5390877;23;19958;-89
2024/01/29 08:28:42;;;;;;;;;;;;;;;;;;4937960;29;20309;-88
2024/01/29 08:31:08;;;;;;;;;;;;;;;;;;4937777;29;20365;-88
2024/01/29 08:33:34;;;;;;;;;;;;;;;;;;4936638;29;19918;-88
2024/01/29 08:35:59;;;;;;;;;;;;;;;;;;4937437;29;19969;-88
2024/01/29 08:38:24;;;;;;;;;;;;;;;;;;4937481;29;19914;-88
2024/01/29 08:40:50;;;;;;;;;;;;;;;;;;4937462;29;19921;-88
2024/01/29 08:43:15;;;;;;;;;;;;;;;;;;4936257;29;19914;-87
2024/01/29 08:45:41;;;;;;;;;;;;;;;;;;4937387;29;19998;-89
2024/01/29 08:48:07;;;;;;;;;;;;;;;;;;4937384;29;19926;-88
2024/01/29 08:50:32;;;;;;;;;;;;;;;;;;4936202;29;19915;-87
2024/01/29 08:52:57;;;;;;;;;;;;;;;;;;4937223;29;19919;-88
2024/01/29 08:55:23;;;;;;;;;;;;;;;;;;4935818;29;19925;-87
2024/01/29 08:57:49;;;;;;;;;;;;;;;;;;4936000;29;20425;-87
2024/01/29 09:00:14;;;;;;;;;;;;;;;;;;4935835;29;20408;-87
2024/01/29 09:02:41;;;;;;;;;;;;;;;;;;4937067;29;19919;-87
2024/01/29 09:05:06;;;;;;;;;;;;;;;;;;4937186;29;19914;-89
2024/01/29 09:07:32;;;;;;;;;;;;;;;;;;4935839;29;20005;-88
2024/01/29 09:09:57;;;;;;;;;;;;;;;;;;4935903;29;19919;-88
2024/01/29 09:12:22;;;;;;;;;;;;;;;;;;4935735;29;19919;-88
2024/01/29 09:14:48;;;;;;;;;;;;;;;;;;4936966;29;20337;-88
2024/01/29 09:17:13;;;;;;;;;;;;;;;;;;4937292;29;19926;-88
2024/01/29 09:19:38;;;;;;;;;;;;;;;;;;4936928;29;19918;-88
2024/01/29 09:22:03;;;;;;;;;;;;;;;;;;4935784;29;19915;-88
2024/01/29 09:24:29;;;;;;;;;;;;;;;;;;4936876;29;19921;-88
2024/01/29 09:26:54;;;;;;;;;;;;;;;;;;4938121;29;19919;-88
2024/01/29 09:29:19;;;;;;;;;;;;;;;;;;4935465;29;19915;-88
2024/01/29 09:31:45;;;;;;;;;;;;;;;;;;4935715;29;19915;-90
2024/01/29 09:34:10;;;;;;;;;;;;;;;;;;4935726;29;20054;-88
2024/01/29 09:36:35;;;;;;;;;;;;;;;;;;4935647;29;19918;-89
2024/01/29 09:39:01;;;;;;;;;;;;;;;;;;4936785;29;19910;-89
2024/01/29 09:41:31;;;;;;;;;;;;;;;;;;4935512;29;19982;-90
2024/01/29 09:43:56;;;;;;;;;;;;;;;;;;4935872;29;19979;-90
2024/01/29 09:46:22;;;;;;;;;;;;;;;;;;4937177;29;19910;-91
2024/01/29 09:48:47;;;;;;;;;;;;;;;;;;4936037;29;19921;-91
2024/01/29 09:51:16;;;;;;;;;;;;;;;;;;4937034;29;19915;-91
2024/01/29 09:53:41;;;;;;;;;;;;;;;;;;4935959;29;19961;-89
2024/01/29 12:46:18;;;;;;;;;;;;;;;;;;5164821;23;19922;-93
2024/01/29 17:31:04;;;;;;;;;;;;;;;;;;5146847;23;19922;-94
2024/01/29 17:33:30;;;;;;;;;;;;;;;;;;4937979;29;20353;-93
2024/01/29 17:35:56;;;;;;;;;;;;;;;;;;4937747;29;20281;-93
2024/01/29 17:38:22;;;;;;;;;;;;;;;;;;4939266;29;19914;-93
2024/01/29 17:40:47;;;;;;;;;;;;;;;;;;4939823;29;20277;-91
2024/01/29 17:43:13;;;;;;;;;;;;;;;;;;4939978;29;19915;-90
2024/01/29 17:45:41;;;;;;;;;;;;;;;;;;4940135;29;19994;-92
2024/01/29 17:48:06;;;;;;;;;;;;;;;;;;4940104;29;19915;-91
2024/01/29 17:50:32;;;;;;;;;;;;;;;;;;4940629;29;19973;-94
2024/01/29 17:52:58;;;;;;;;;;;;;;;;;;4940194;29;19953;-90
2024/01/29 17:55:23;;;;;;;;;;;;;;;;;;4939356;29;19962;-90
2024/01/29 17:57:49;;;;;;;;;;;;;;;;;;4939910;29;20357;-90
2024/01/29 18:00:14;;;;;;;;;;;;;;;;;;4940624;29;19921;-90
2024/01/29 18:02:40;;;;;;;;;;;;;;;;;;4939901;29;19938;-92
2024/01/29 18:05:05;;;;;;;;;;;;;;;;;;4941836;29;19938;-92
2024/01/29 18:07:31;;;;;;;;;;;;;;;;;;4940681;29;19966;-90
2024/01/29 18:09:56;;;;;;;;;;;;;;;;;;4942720;29;19942;-92
2024/01/29 18:12:23;;;;;;;;;;;;;;;;;;4942765;29;20526;-94
2024/01/29 18:14:50;;;;;;;;;;;;;;;;;;4942005;29;19942;-92
2024/01/29 18:17:19;;;;;;;;;;;;;;;;;;4941570;29;19915;-92
2024/01/29 18:19:45;;;;;;;;;;;;;;;;;;4939689;29;19915;-91
2024/01/29 18:22:11;;;;;;;;;;;;;;;;;;4943644;29;19934;-93
2024/01/29 18:24:37;;;;;;;;;;;;;;;;;;4940328;29;19921;-93
2024/01/29 18:27:03;;;;;;;;;;;;;;;;;;4941192;29;19915;-92
2024/01/29 18:29:29;;;;;;;;;;;;;;;;;;4940965;29;19980;-92
2024/01/29 18:31:55;;;;;;;;;;;;;;;;;;4939994;29;20354;-93
2024/01/29 18:34:20;;;;;;;;;;;;;;;;;;4939258;29;20374;-94
2024/01/29 18:36:46;;;;;;;;;;;;;;;;;;4939336;29;19914;-91
2024/01/29 18:39:11;;;;;;;;;;;;;;;;;;4939327;29;19925;-95
2024/01/29 18:41:37;;;;;;;;;;;;;;;;;;4939580;29;19914;-94
2024/01/29 18:44:03;;;;;;;;;;;;;;;;;;4940273;29;19914;-94
2024/01/29 18:46:28;;;;;;;;;;;;;;;;;;4939841;29;19915;-93
2024/01/29 18:48:54;;;;;;;;;;;;;;;;;;4939798;29;20368;-94
2024/01/29 18:51:24;;;;;;;;;;;;;;;;;;4939162;28;19914;-93
2024/01/29 18:53:50;;;;;;;;;;;;;;;;;;4939092;29;19915;-91
2024/01/29 18:56:15;;;;;;;;;;;;;;;;;;4939136;29;19966;-96
2024/01/29 18:58:41;;;;;;;;;;;;;;;;;;4944555;29;19966;-95
2024/01/29 19:01:06;;;;;;;;;;;;;;;;;;4947971;28;19898;-95
2024/01/29 19:03:31;;;;;;;;;;;;;;;;;;4943048;29;19915;-96
2024/01/29 19:05:57;;;;;;;;;;;;;;;;;;4941300;29;19914;-96
2024/01/29 19:08:22;;;;;;;;;;;;;;;;;;4931948;29;19926;-95
2024/01/29 19:10:48;;;;;;;;;;;;;;;;;;4949597;29;19969;-96
2024/01/29 19:13:14;;;;;;;;;;;;;;;;;;4942193;29;19915;-96
2024/01/29 19:15:41;;;;;;;;;;;;;;;;;;4940666;29;20417;-94
2024/01/29 19:18:09;;;;;;;;;;;;;;;;;;4940224;29;19915;-94
2024/01/29 19:20:35;;;;;;;;;;;;;;;;;;4940936;29;19919;-93
2024/01/29 19:23:00;;;;;;;;;;;;;;;;;;4939912;29;19919;-93
2024/01/29 19:25:26;;;;;;;;;;;;;;;;;;4939807;29;19958;-94
2024/01/29 19:27:52;;;;;;;;;;;;;;;;;;4939736;29;19915;-93
2024/01/29 19:30:17;;;;;;;;;;;;;;;;;;4939620;29;19981;-94
2024/01/29 19:32:43;;;;;;;;;;;;;;;;;;4939918;29;19925;-92
2024/01/29 19:35:08;;;;;;;;;;;;;;;;;;4939653;29;20255;-93
2024/01/29 19:37:34;;;;;;;;;;;;;;;;;;4939991;29;19941;-94
2024/01/29 19:40:00;;;;;;;;;;;;;;;;;;4939470;29;19938;-94
2024/01/29 19:42:26;;;;;;;;;;;;;;;;;;4941011;29;19898;-95
2024/01/29 19:44:51;;;;;;;;;;;;;;;;;;4939510;29;19915;-96
2024/01/29 19:47:17;;;;;;;;;;;;;;;;;;4940760;29;20258;-96
2024/01/29 19:49:46;;;;;;;;;;;;;;;;;;4939723;29;20388;-96
2024/01/29 19:52:14;;;;;;;;;;;;;;;;;;4938601;29;19918;-95
2024/01/29 19:54:40;;;;;;;;;;;;;;;;;;4938458;29;19915;-96
2024/01/29 19:57:06;;;;;;;;;;;;;;;;;;4938474;29;19961;-96
2024/01/29 19:59:31;;;;;;;;;;;;;;;;;;4938351;29;19922;-96
2024/01/29 20:01:56;;;;;;;;;;;;;;;;;;4937570;29;19914;-95
2024/01/29 20:04:22;;;;;;;;;;;;;;;;;;4938650;29;20010;-94
2024/01/29 20:06:47;;;;;;;;;;;;;;;;;;4937676;29;19915;-89
2024/01/29 20:09:13;;;;;;;;;;;;;;;;;;4939333;29;19921;-91
2024/01/29 20:11:38;;;;;;;;;;;;;;;;;;4939083;29;19910;-89
2024/01/29 20:14:03;;;;;;;;;;;;;;;;;;4937175;29;19921;-90
2024/01/29 20:16:34;;;;;;;;;;;;;;;;;;4937309;29;19915;-89
2024/01/29 20:19:00;;;;;;;;;;;;;;;;;;4937595;29;19915;-89
2024/01/29 20:21:25;;;;;;;;;;;;;;;;;;4937175;29;19914;-90
2024/01/29 20:23:53;;;;;;;;;;;;;;;;;;4937083;29;19918;-91
2024/01/29 20:26:19;;;;;;;;;;;;;;;;;;4937463;29;20285;-90
2024/01/29 20:28:44;;;;;;;;;;;;;;;;;;4937543;29;19921;-90
2024/01/29 20:31:11;;;;;;;;;;;;;;;;;;4937301;29;19918;-90
2024/01/29 20:33:36;;;;;;;;;;;;;;;;;;4937635;29;20376;-91
2024/01/29 20:36:01;;;;;;;;;;;;;;;;;;4937874;29;19923;-92
2024/01/29 20:38:31;;;;;;;;;;;;;;;;;;4938438;29;19923;-94
2024/01/29 20:40:56;;;;;;;;;;;;;;;;;;4938467;29;20293;-91
2024/01/29 20:43:22;;;;;;;;;;;;;;;;;;4938039;29;19921;-93
2024/01/29 20:45:47;;;;;;;;;;;;;;;;;;4938495;29;19962;-93
2024/01/29 20:48:13;;;;;;;;;;;;;;;;;;4947896;29;20293;-96
2024/01/29 20:50:42;;;;;;;;;;;;;;;;;;4950519;29;19953;-91
2024/01/29 20:53:08;;;;;;;;;;;;;;;;;;4956679;29;19914;-92
2024/01/29 20:55:33;;;;;;;;;;;;;;;;;;4956383;29;19922;-92
2024/01/29 20:57:59;;;;;;;;;;;;;;;;;;4956593;29;20403;-92
2024/01/29 21:00:24;;;;;;;;;;;;;;;;;;4940026;29;20333;-90
2024/01/29 21:02:49;;;;;;;;;;;;;;;;;;4955994;29;20008;-94
2024/01/29 21:05:20;;;;;;;;;;;;;;;;;;4956422;29;19915;-93
2024/01/29 21:07:53;;;;;;;;;;;;;;;;;;4951776;28;19919;-95
2024/01/29 21:10:21;;;;;;;;;;;;;;;;;;4928403;29;19919;-91
2024/01/29 21:12:47;;;;;;;;;;;;;;;;;;4944770;29;19914;-93
2024/01/29 21:15:14;;;;;;;;;;;;;;;;;;4946799;29;19938;-94
2024/01/29 21:17:39;;;;;;;;;;;;;;;;;;4947643;29;20285;-89
2024/01/29 21:20:06;;;;;;;;;;;;;;;;;;4938793;29;19911;-93
2024/01/29 21:22:32;;;;;;;;;;;;;;;;;;4937470;29;19915;-91
2024/01/29 21:24:57;;;;;;;;;;;;;;;;;;4937005;29;20376;-92
2024/01/29 21:27:22;;;;;;;;;;;;;;;;;;4936898;29;20300;-90
2024/01/29 21:29:48;;;;;;;;;;;;;;;;;;4939184;29;20372;-90
2024/01/29 21:32:16;;;;;;;;;;;;;;;;;;4938462;29;19982;-93
2024/01/29 21:34:41;;;;;;;;;;;;;;;;;;4940081;29;19918;-90
2024/01/29 21:37:06;;;;;;;;;;;;;;;;;;4938358;29;19963;-93
2024/01/29 21:39:32;;;;;;;;;;;;;;;;;;4938712;29;19917;-95
2024/01/29 21:41:57;;;;;;;;;;;;;;;;;;4938032;29;19962;-93
2024/01/29 21:44:23;;;;;;;;;;;;;;;;;;4936726;29;19910;-91
2024/01/29 21:46:48;;;;;;;;;;;;;;;;;;4942388;29;19919;-92
2024/01/29 21:49:14;;;;;;;;;;;;;;;;;;4955975;29;19915;-90
2024/01/29 21:51:45;;;;;;;;;;;;;;;;;;4940718;29;19915;-93
2024/01/29 21:54:11;;;;;;;;;;;;;;;;;;4928299;29;20282;-92
2024/01/29 21:56:37;;;;;;;;;;;;;;;;;;4928660;29;19915;-91
2024/01/29 21:59:02;;;;;;;;;;;;;;;;;;4944941;29;19974;-92
2024/01/29 22:01:27;;;;;;;;;;;;;;;;;;4953733;29;19918;-93
2024/01/29 22:03:53;;;;;;;;;;;;;;;;;;4956081;29;20321;-92
2024/01/29 22:06:19;;;;;;;;;;;;;;;;;;4957293;29;20361;-95
2024/01/29 22:08:45;;;;;;;;;;;;;;;;;;4956502;29;20272;-93
2024/01/29 22:11:10;;;;;;;;;;;;;;;;;;4955771;29;19922;-94
2024/01/29 22:13:35;;;;;;;;;;;;;;;;;;4955659;29;19914;-90
2024/01/29 22:16:01;;;;;;;;;;;;;;;;;;4955221;29;20357;-90
2024/01/29 22:18:26;;;;;;;;;;;;;;;;;;4954837;29;20365;-92
2024/01/29 22:20:51;;;;;;;;;;;;;;;;;;4955901;28;19914;-91
2024/01/29 22:23:17;;;;;;;;;;;;;;;;;;4956210;28;20280;-91
2024/01/29 22:25:42;;;;;;;;;;;;;;;;;;4956857;28;20342;-91
2024/01/29 22:28:07;;;;;;;;;;;;;;;;;;4959542;29;20012;-91
2024/01/29 22:30:33;;;;;;;;;;;;;;;;;;4958360;29;19969;-91
2024/01/29 22:32:58;;;;;;;;;;;;;;;;;;4958578;29;19926;-90
2024/01/29 22:35:23;;;;;;;;;;;;;;;;;;4958628;29;20262;-89
2024/01/29 22:37:49;;;;;;;;;;;;;;;;;;4957838;29;19915;-90
2024/01/29 22:40:14;;;;;;;;;;;;;;;;;;4958275;29;19914;-90
2024/01/29 22:42:39;;;;;;;;;;;;;;;;;;4958281;29;19914;-93
2024/01/29 22:45:05;;;;;;;;;;;;;;;;;;4959460;29;19970;-91
2024/01/29 22:47:30;;;;;;;;;;;;;;;;;;4958199;29;19965;-90
2024/01/29 22:49:56;;;;;;;;;;;;;;;;;;4959111;28;19914;-90
2024/01/29 22:52:21;;;;;;;;;;;;;;;;;;4959250;28;19918;-90
2024/01/29 22:54:47;;;;;;;;;;;;;;;;;;4958349;29;20261;-91
2024/01/29 22:57:12;;;;;;;;;;;;;;;;;;4958564;28;20009;-90
2024/01/29 22:59:37;;;;;;;;;;;;;;;;;;4957876;29;19910;-90
2024/01/29 23:02:03;;;;;;;;;;;;;;;;;;4957595;29;19918;-91
2024/01/29 23:04:31;;;;;;;;;;;;;;;;;;4957533;29;19915;-90
2024/01/29 23:06:56;;;;;;;;;;;;;;;;;;4957564;29;19917;-90
2024/01/29 23:09:21;;;;;;;;;;;;;;;;;;4958632;28;19918;-89
2024/01/29 23:11:47;;;;;;;;;;;;;;;;;;4957545;29;19910;-89
2024/01/29 23:14:12;;;;;;;;;;;;;;;;;;4958678;28;19914;-88
